Weather at Garrett County Airport

Public forecast

Using degrees Fahrenheit for public forecast. Weather courtesy of forecast.io.

Current aviation weather report (METAR) for Garrett County Airport

Retrieved UTC (0 seconds ago):

Closest aviation forecast (TAF) to Garrett County Airport

Closest forecast is Morgantown Municipal Walter L. Bill Hart Field, 26.9 nm (49.9 km) W. Retrieved 2020/09/29 06:24 UTC (16 minutes ago):

TAF COR KMGW 290522Z 2906/3006 28010KT P6SM -SHRA OVC040 FM290700 26008KT P6SM -SHRA OVC010 FM291300 29003KT 5SM -RA BR OVC007 FM291800 28003KT 3SM -RA BR OVC010 FM300100 00000KT 5SM RA BR OVC007